This is the latest recevied weather packets stored in our database for station/object DO1SC. If no packets are shown the sender has not sent any weather packets the latest 10 day(s).
| Time | Temp. | Humidity | Pressure | Rain* | Wind** | Luminosity | Snow |
|---|---|---|---|---|---|---|---|
| 1777704935 | 16.11° C | 43% | 1025 hPa | - | - | 246 W/m² | - |
| 1777704330 | 16.11° C | 46% | 1025 hPa | - | - | 199 W/m² | - |
| 1777703717 | 15.56° C | 45% | 1025.1 hPa | - | - | 143 W/m² | - |
| 1777703129 | 15.56° C | 49% | 1025 hPa | - | - | 97 W/m² | - |
| 1777702520 | 14.44° C | 52% | 1024.9 hPa | - | - | 67 W/m² | - |
| 1777701932 | 14.44° C | 52% | 1025 hPa | - | - | 33 W/m² | - |
| 1777701323 | 13.89° C | 52% | 1025 hPa | - | - | 33 W/m² | - |
| 1777700733 | 13.33° C | 53% | 1025.1 hPa | - | - | 30 W/m² | - |
| 1777700124 | 12.78° C | 54% | 1025 hPa | - | - | 30 W/m² | - |
| 1777699536 | 12.22° C | 55% | 1025.2 hPa | - | - | 29 W/m² | - |
| 1777698930 | 12.22° C | 55% | 1025.1 hPa | - | - | 26 W/m² | - |
| 1777698318 | 11.67° C | 56% | 1025.2 hPa | - | - | 24 W/m² | - |
| 1777697730 | 11.11° C | 58% | 1025 hPa | - | - | 23 W/m² | - |
| 1777697122 | 9.44° C | 63% | 1025.1 hPa | - | - | 20 W/m² | - |
| 1777696533 | 9.44° C | 64% | 1025.1 hPa | - | - | 17 W/m² | - |
| 1777695928 | 10° C | 61% | 1025.1 hPa | - | - | 14 W/m² | - |
| 1777694728 | 9.44° C | 63% | 1025.2 hPa | - | - | 7 W/m² | - |
| 1777694119 | 8.33° C | 66% | 1025.1 hPa | - | - | 4 W/m² | - |
| 1777693529 | 8.33° C | 66% | 1025.2 hPa | - | - | 2 W/m² | - |
| 1777692920 | 8.33° C | 66% | 1025.3 hPa | - | - | 0 W/m² | - |
| 1777692332 | 8.89° C | 64% | 1025.3 hPa | - | - | 0 W/m² | - |
| 1777691724 | 9.44° C | 62% | 1025.3 hPa | - | - | 0 W/m² | - |
| 1777691135 | 10° C | 59% | 1025.3 hPa | - | - | 0 W/m² | - |
| 1777690527 | 10° C | 58% | 1025.3 hPa | - | - | 0 W/m² | - |
| 1777689918 | 9.44° C | 62% | 1025.5 hPa | - | - | 0 W/m² | - |
* Rain since midnight (hover to see other rain measurements)
** Current wind speed in m/s (hover to see current wind gust speed)